Time;durP1;ratioP1;P1;durP2;ratioP2;P2;SDS_P1;SDS_P2;PMS_P1;PMS_P2;Temp;Humidity;BMP_temperature;BMP_pressure;BME280_temperature;BME280_humidity;BME280_pressure;Samples;Min_cycle;Max_cycle;Signal;HPM_P1;HPM_P2
2022/09/10 00:00:53;;;;;;;31.10;22.48;;;;;;;21.88;59.72;100922.13;5093541;28;20039;-76
2022/09/10 00:03:19;;;;;;;25.70;21.70;;;;;;;21.87;60.06;100922.44;5093315;28;20044;-76
2022/09/10 00:05:47;;;;;;;35.65;23.67;;;;;;;21.92;60.18;100933.28;5093661;28;20036;-74
2022/09/10 00:08:13;;;;;;;31.33;23.30;;;;;;;21.96;59.94;100932.41;5093794;28;20631;-75
2022/09/10 00:10:43;;;;;;;26.27;22.75;;;;;;;21.91;59.85;100935.25;5094482;28;20024;-75
2022/09/10 00:13:10;;;;;;;34.40;22.98;;;;;;;21.82;60.82;100932.34;5076293;28;20035;-76
2022/09/10 00:15:44;;;;;;;29.17;23.58;;;;;;;22.03;59.94;100935.59;5087997;28;20074;-75
2022/09/10 00:18:11;;;;;;;32.95;22.73;;;;;;;22.17;59.99;100932.91;5073896;28;20231;-75
2022/09/10 00:20:51;;;;;;;37.05;21.67;;;;;;;22.04;60.30;100933.66;5073807;28;20090;-75
2022/09/10 00:23:22;;;;;;;36.67;21.48;;;;;;;22.14;60.02;100926.09;5072872;28;20059;-76
2022/09/10 00:25:48;;;;;;;27.58;21.05;;;;;;;22.23;59.85;100935.22;5074517;28;20039;-75
2022/09/10 00:28:15;;;;;;;26.80;22.13;;;;;;;22.34;59.04;100936.69;5073617;28;20496;-76
2022/09/10 00:30:45;;;;;;;27.90;21.73;;;;;;;22.36;59.25;100937.22;5072983;28;20404;-75
2022/09/10 00:33:11;;;;;;;;;;;;;;;22.34;59.81;100931.22;5092236;28;20487;-76
2022/09/10 00:35:39;;;;;;;24.77;20.52;;;;;;;22.39;59.83;100930.31;5093039;28;19924;-76
2022/09/10 00:38:05;;;;;;;22.35;19.27;;;;;;;22.37;60.29;100935.25;5093007;28;20039;-75
2022/09/10 00:40:31;;;;;;;30.80;20.08;;;;;;;22.45;59.67;100935.41;5093548;28;20440;-76
2022/09/10 00:42:57;;;;;;;26.40;20.02;;;;;;;22.52;59.21;100938.56;5093225;28;20032;-75
2022/09/10 00:45:25;;;;;;;26.85;18.98;;;;;;;22.49;60.00;100939.16;5093039;28;20399;-75
2022/09/10 00:47:53;;;;;;;29.50;19.40;;;;;;;22.55;59.39;100937.94;5093206;28;20028;-76
2022/09/10 00:50:40;;;;;;;27.40;19.85;;;;;;;22.55;59.38;100928.91;5093206;28;20404;-74
2022/09/10 00:53:09;;;;;;;26.52;18.77;;;;;;;22.48;59.59;100926.59;5092669;28;20016;-75
2022/09/10 00:55:38;;;;;;;25.10;18.00;;;;;;;22.38;60.21;100931.44;5093278;28;20043;-75
2022/09/10 00:58:07;;;;;;;23.33;17.80;;;;;;;22.57;59.42;100935.75;5092808;28;20050;-76
2022/09/10 01:00:33;;;;;;;27.55;17.77;;;;;;;22.65;59.00;100935.06;5092917;28;20034;-75
2022/09/10 01:02:59;;;;;;;23.05;17.08;;;;;;;22.69;59.19;100929.78;5093002;28;20085;-74
2022/09/10 01:05:25;;;;;;;26.33;18.70;;;;;;;22.72;58.83;100933.84;5092917;28;20039;-75
2022/09/10 01:07:51;;;;;;;34.13;19.85;;;;;;;22.68;58.72;100933.66;5092590;28;20030;-75
2022/09/10 01:10:27;;;;;;;29.48;17.25;;;;;;;22.70;58.82;100934.94;5092981;28;20012;-75
2022/09/10 01:13:06;;;;;;;27.70;17.33;;;;;;;22.76;58.66;100930.19;5092466;28;20040;-76
2022/09/10 01:15:50;;;;;;;24.35;16.77;;;;;;;22.78;58.57;100927.16;5092544;28;20060;-76
2022/09/10 01:18:31;;;;;;;28.75;17.13;;;;;;;22.78;58.41;100933.44;5092445;28;20082;-74
2022/09/10 01:21:09;;;;;;;23.55;17.00;;;;;;;22.81;58.25;100934.75;5092577;28;20158;-74
2022/09/10 01:23:58;;;;;;;24.92;17.33;;;;;;;22.89;58.74;100936.78;5092098;28;20116;-75
2022/09/10 01:27:01;;;;;;;21.83;16.52;;;;;;;22.92;58.62;100938.94;5092898;28;20121;-75
2022/09/10 01:29:53;;;;;;;21.98;16.02;;;;;;;22.82;58.54;100937.19;5092505;28;20138;-75
2022/09/10 01:32:27;;;;;;;26.20;15.43;;;;;;;22.92;58.21;100934.25;5020055;28;20045;-75
2022/09/10 01:35:09;;;;;;;27.27;16.40;;;;;;;22.87;58.79;100934.34;5028803;28;20265;-75
2022/09/10 01:37:37;;;;;;;25.50;16.00;;;;;;;22.85;58.68;100933.84;5029532;28;20077;-74
2022/09/10 01:40:04;;;;;;;23.65;15.80;;;;;;;23.00;58.21;100938.19;5016239;28;20309;-76
2022/09/10 01:42:30;;;;;;;24.00;15.82;;;;;;;22.97;58.77;100938.81;5009396;28;20493;-74
2022/09/10 01:44:56;;;;;;;22.42;15.35;;;;;;;22.92;58.70;100944.41;5009671;28;20490;-75
2022/09/10 01:47:46;;;;;;;22.30;15.10;;;;;;;22.94;58.05;100939.44;5009780;28;20050;-75
2022/09/10 01:50:33;;;;;;;21.38;14.57;;;;;;;22.89;58.28;100940.34;5009472;28;20041;-76
2022/09/10 01:53:13;;;;;;;23.88;13.73;;;;;;;22.88;58.25;100946.94;5009296;28;20034;-75
2022/09/10 01:55:50;;;;;;;20.13;14.48;;;;;;;22.84;58.35;100940.44;5010347;28;20497;-73
2022/09/10 01:58:22;;;;;;;25.02;14.48;;;;;;;22.98;58.47;100943.16;5009437;28;20442;-74
2022/09/10 02:01:23;;;;;;;21.02;14.45;;;;;;;22.89;57.95;100934.88;5009371;28;20124;-75
2022/09/10 02:03:54;;;;;;;20.08;12.80;;;;;;;22.88;58.17;100930.50;4932087;29;20040;-74
2022/09/10 02:06:21;;;;;;;24.85;13.70;;;;;;;22.86;58.26;100935.47;4931943;29;20061;-76
2022/09/10 02:08:51;;;;;;;20.10;13.38;;;;;;;22.94;58.27;100940.22;4952551;28;20037;-74
2022/09/10 02:11:17;;;;;;;23.10;14.33;;;;;;;22.87;58.53;100941.75;5009088;28;20536;-73
2022/09/10 02:13:42;;;;;;;18.95;12.70;;;;;;;22.87;58.14;100936.28;5009279;28;20440;-75
2022/09/10 02:16:13;;;;;;;20.73;14.75;;;;;;;22.89;58.41;100937.59;4999830;28;20049;-75
2022/09/10 02:18:39;;;;;;;22.30;12.68;;;;;;;22.84;58.11;100951.41;4989509;28;20121;-75
2022/09/10 02:21:05;;;;;;;18.77;12.30;;;;;;;22.73;58.55;100949.16;4989592;28;20076;-76
2022/09/10 02:23:39;;;;;;;16.50;11.95;;;;;;;22.74;58.69;100948.88;4989235;28;20077;-75
2022/09/10 02:26:05;;;;;;;20.90;12.52;;;;;;;22.82;58.36;100944.63;4989292;28;20113;-75
2022/09/10 02:28:31;;;;;;;21.30;12.65;;;;;;;22.88;58.14;100954.38;4999949;28;20130;-74
2022/09/10 02:30:56;;;;;;;22.30;12.35;;;;;;;22.70;58.14;100945.91;5008767;28;20050;-75
2022/09/10 02:33:22;;;;;;;21.88;10.68;;;;;;;22.68;58.40;100947.34;4989026;28;20034;-74
2022/09/10 02:35:48;;;;;;;24.45;13.63;;;;;;;22.75;58.15;100950.50;4997566;28;20133;-74
2022/09/10 02:38:15;;;;;;;21.30;11.98;;;;;;;22.73;58.71;100946.41;4994710;28;20081;-75
2022/09/10 02:40:42;;;;;;;22.70;13.80;;;;;;;22.86;58.07;100943.69;5091569;28;20036;-76
2022/09/10 02:43:07;;;;;;;21.30;12.20;;;;;;;22.69;58.27;100948.94;5090539;28;20068;-74
2022/09/10 02:45:33;;;;;;;24.67;12.85;;;;;;;22.68;58.40;100941.88;5091689;28;20503;-75
2022/09/10 02:47:59;;;;;;;21.23;12.90;;;;;;;22.73;57.96;100949.16;5095211;28;20028;-76
2022/09/10 02:50:24;;;;;;;22.63;13.05;;;;;;;22.56;58.44;100944.25;5095165;28;20032;-74
2022/09/10 02:52:50;;;;;;;21.77;13.13;;;;;;;22.64;58.68;100954.53;5076347;28;20373;-74
2022/09/10 02:55:16;;;;;;;22.85;13.63;;;;;;;22.68;58.74;100948.13;5095826;28;20043;-76
2022/09/10 02:57:42;;;;;;;27.48;14.65;;;;;;;22.74;58.61;100957.09;5095042;28;20044;-74
2022/09/10 03:00:09;;;;;;;26.00;13.52;;;;;;;22.78;58.80;100962.78;5094798;28;20032;-75
2022/09/10 03:02:35;;;;;;;25.50;14.18;;;;;;;22.59;58.54;100966.41;5094853;28;20101;-76
2022/09/10 03:05:03;;;;;;;25.10;14.52;;;;;;;22.68;58.54;100967.31;5094808;28;20024;-74
2022/09/10 03:07:29;;;;;;;27.10;14.73;;;;;;;22.76;58.21;100965.78;5095579;28;20376;-75
2022/09/10 03:09:54;;;;;;;19.90;14.52;;;;;;;22.77;58.35;100972.91;5094643;28;20039;-75
2022/09/10 03:12:20;;;;;;;26.48;14.27;;;;;;;22.72;58.63;100973.03;5094505;28;20040;-74
2022/09/10 03:14:46;;;;;;;28.65;16.02;;;;;;;22.68;58.55;100964.56;5094684;28;20491;-74
2022/09/10 03:17:11;;;;;;;25.42;16.45;;;;;;;22.75;58.17;100960.63;5094375;28;20522;-75
2022/09/10 03:19:38;;;;;;;36.58;17.38;;;;;;;22.75;58.71;100961.44;5094965;28;20023;-75
2022/09/10 03:22:04;;;;;;;23.08;15.38;;;;;;;22.87;58.23;100956.28;5094644;28;20115;-75
2022/09/10 03:24:30;;;;;;;30.27;16.58;;;;;;;22.89;57.76;100955.97;5093722;28;20136;-76
2022/09/10 03:26:55;;;;;;;23.33;17.85;;;;;;;22.92;57.77;100958.91;5094120;28;20066;-76
2022/09/10 03:29:24;;;;;;;36.65;19.10;;;;;;;22.88;57.74;100957.09;5094202;28;20039;-75
2022/09/10 03:31:51;;;;;;;31.08;19.02;;;;;;;22.65;58.56;100956.97;5094212;28;20068;-75
2022/09/10 03:34:17;;;;;;;31.35;18.58;;;;;;;22.86;58.23;100957.38;5094697;28;20399;-75
2022/09/10 03:36:43;;;;;;;30.90;17.95;;;;;;;22.76;58.69;100951.31;5094300;28;20494;-76
2022/09/10 03:39:08;;;;;;;24.70;17.38;;;;;;;22.78;58.48;100954.56;5094070;28;20116;-75
2022/09/10 03:41:34;;;;;;;30.58;17.83;;;;;;;22.76;58.12;100954.03;5094520;28;20054;-76
2022/09/10 03:43:59;;;;;;;24.35;18.15;;;;;;;22.65;58.72;100954.22;5094162;28;20036;-74
2022/09/10 03:46:25;;;;;;;27.42;19.65;;;;;;;22.67;58.45;100953.94;5094863;28;20024;-74
2022/09/10 03:48:51;;;;;;;27.40;19.92;;;;;;;22.68;58.86;100953.63;5094326;28;20032;-74
2022/09/10 03:51:17;;;;;;;31.58;20.75;;;;;;;22.78;58.54;100951.81;5094233;28;20032;-74
2022/09/10 03:53:42;;;;;;;31.13;20.27;;;;;;;22.74;58.31;100956.28;5093913;28;20043;-75
2022/09/10 03:56:09;;;;;;;31.67;19.85;;;;;;;22.77;58.15;100944.69;5094029;28;20132;-74
2022/09/10 03:58:34;;;;;;;30.50;19.88;;;;;;;22.80;58.39;100949.59;5093936;28;20039;-74
2022/09/10 04:01:01;;;;;;;34.17;19.83;;;;;;;22.87;57.97;100953.53;5091890;28;20530;-74
2022/09/10 04:03:27;;;;;;;36.25;19.92;;;;;;;22.77;58.56;100950.19;5091370;28;20078;-74
2022/09/10 04:05:52;;;;;;;29.75;20.77;;;;;;;22.85;58.77;100954.94;5093844;28;20028;-75
2022/09/10 04:08:19;;;;;;;32.97;20.90;;;;;;;22.90;58.36;100955.66;5093464;28;20028;-74
2022/09/10 04:10:45;;;;;;;26.80;20.02;;;;;;;22.89;58.46;100958.72;5075590;28;20071;-74
2022/09/10 04:13:10;;;;;;;33.65;20.33;;;;;;;22.86;58.51;100943.69;5093228;28;20035;-73
2022/09/10 04:15:36;;;;;;;30.17;20.75;;;;;;;22.84;58.15;100951.41;5093431;28;20040;-73
2022/09/10 04:18:02;;;;;;;37.67;22.60;;;;;;;22.66;58.64;100946.84;5094037;28;20036;-74
2022/09/10 04:20:27;;;;;;;33.30;20.45;;;;;;;22.65;58.32;100940.53;5093194;28;20119;-75
2022/09/10 04:22:53;;;;;;;35.90;22.98;;;;;;;22.60;58.70;100940.63;5093368;28;20024;-76
2022/09/10 04:25:19;;;;;;;35.58;22.80;;;;;;;22.40;59.22;100948.38;5093687;28;20050;-74
2022/09/10 04:27:45;;;;;;;36.67;21.33;;;;;;;22.48;58.84;100948.50;5093274;28;20111;-77
2022/09/10 04:30:11;;;;;;;37.28;23.05;;;;;;;22.56;58.65;100947.00;5093318;28;20036;-73
2022/09/10 04:32:37;;;;;;;33.00;21.10;;;;;;;22.43;59.33;100945.84;5093207;28;20032;-74
2022/09/10 04:35:04;;;;;;;33.38;21.42;;;;;;;22.52;58.53;100945.97;5093222;28;20093;-71
2022/09/10 04:37:30;;;;;;;29.27;20.60;;;;;;;22.53;58.90;100953.06;5093326;28;20043;-72
2022/09/10 04:39:55;;;;;;;30.67;21.63;;;;;;;22.59;58.38;100949.13;5092525;28;20032;-71
2022/09/10 04:42:21;;;;;;;30.63;20.58;;;;;;;22.63;58.43;100953.72;5092610;28;20738;-70
2022/09/10 04:44:47;;;;;;;38.35;21.58;;;;;;;22.62;58.62;100954.03;5092629;28;20033;-70
2022/09/10 04:47:13;;;;;;;36.63;22.77;;;;;;;22.63;58.81;100955.66;5093057;28;20040;-72
2022/09/10 04:49:39;;;;;;;31.55;21.50;;;;;;;22.67;58.70;100954.75;5093613;28;20039;-72
2022/09/10 04:52:04;;;;;;;29.15;21.35;;;;;;;22.53;58.94;100956.63;5074427;28;20051;-72
2022/09/10 04:54:30;;;;;;;30.83;22.65;;;;;;;22.49;59.21;100963.00;5092751;28;20514;-73
2022/09/10 04:56:55;;;;;;;34.50;22.90;;;;;;;22.60;58.67;100962.53;5092518;28;20032;-71
2022/09/10 04:59:20;;;;;;;33.08;22.42;;;;;;;22.63;58.56;100959.19;5092210;28;20039;-72
2022/09/10 05:01:49;;;;;;;34.10;22.50;;;;;;;22.74;57.94;100954.34;5092873;28;20035;-71
2022/09/10 05:04:15;;;;;;;35.33;23.92;;;;;;;22.64;58.78;100962.75;5092422;28;20043;-72
2022/09/10 05:06:41;;;;;;;28.35;22.75;;;;;;;22.64;58.46;100965.50;5092500;28;20044;-72
2022/09/10 05:09:07;;;;;;;35.83;24.40;;;;;;;22.60;58.99;100961.75;5091094;28;20397;-73
2022/09/10 05:11:32;;;;;;;28.63;22.38;;;;;;;22.66;58.67;100960.53;5092198;28;20036;-70
2022/09/10 05:13:57;;;;;;;34.33;24.40;;;;;;;22.58;58.81;100956.53;5092257;28;20065;-71
2022/09/10 05:16:23;;;;;;;34.20;23.45;;;;;;;22.56;58.46;100963.44;5083421;28;20032;-72
2022/09/10 05:18:48;;;;;;;29.83;23.13;;;;;;;22.60;59.04;100967.22;5092251;28;20407;-71
2022/09/10 05:21:14;;;;;;;35.53;23.48;;;;;;;22.57;59.04;100962.31;5092063;28;20040;-71
2022/09/10 05:23:40;;;;;;;42.03;25.27;;;;;;;22.49;59.52;100963.81;5091622;28;20043;-73
2022/09/10 05:26:06;;;;;;;34.92;23.35;;;;;;;22.59;58.76;100969.13;5092107;28;20031;-72
2022/09/10 05:28:31;;;;;;;36.88;22.73;;;;;;;22.65;58.90;100962.44;5092348;28;20024;-71
2022/09/10 05:30:56;;;;;;;33.80;22.95;;;;;;;22.70;58.40;100970.56;5073812;28;20062;-70
2022/09/10 05:33:22;;;;;;;38.63;22.58;;;;;;;22.56;59.16;100966.97;5092200;28;20423;-71
2022/09/10 05:35:50;;;;;;;38.80;25.63;;;;;;;22.55;59.15;100967.25;5091790;28;20039;-72
2022/09/10 05:38:16;;;;;;;43.92;25.23;;;;;;;22.58;58.99;100966.72;5091833;28;20071;-71
2022/09/10 05:40:41;;;;;;;37.05;22.33;;;;;;;22.84;59.12;100973.31;5092298;28;20500;-72
2022/09/10 05:43:07;;;;;;;33.60;23.50;;;;;;;22.68;59.27;100972.78;5073358;28;20085;-70
2022/09/10 05:45:32;;;;;;;37.35;23.80;;;;;;;22.76;58.85;100973.22;5091475;28;20419;-72
2022/09/10 05:47:58;;;;;;;31.10;23.67;;;;;;;22.78;59.25;100977.28;5091935;28;20039;-72
2022/09/10 05:50:24;;;;;;;36.58;24.98;;;;;;;22.81;58.99;100982.16;5091414;28;20047;-71
2022/09/10 05:52:49;;;;;;;36.58;24.75;;;;;;;22.79;59.44;100973.44;5091236;28;20028;-72
2022/09/10 05:55:15;;;;;;;34.08;24.92;;;;;;;22.79;58.93;100975.34;5092542;28;20471;-71
2022/09/10 05:57:40;;;;;;;30.02;23.33;;;;;;;22.70;58.90;100984.25;5091490;28;20041;-70
2022/09/10 06:00:08;;;;;;;35.55;25.10;;;;;;;22.87;58.78;100983.69;5091440;28;20093;-71
2022/09/10 06:02:33;;;;;;;40.60;24.13;;;;;;;22.94;58.79;100983.31;5091356;28;20478;-71
2022/09/10 06:04:59;;;;;;;36.40;23.20;;;;;;;22.87;58.62;100980.13;5073335;28;20038;-72
2022/09/10 06:07:28;;;;;;;29.85;23.35;;;;;;;22.88;58.69;100981.78;5091706;28;20089;-71
2022/09/10 06:09:54;;;;;;;37.22;23.88;;;;;;;22.70;58.68;100983.47;5091255;28;20294;-72
2022/09/10 06:12:20;;;;;;;35.83;23.75;;;;;;;22.87;58.39;100986.44;5090790;28;20097;-70
2022/09/10 06:14:45;;;;;;;39.45;24.80;;;;;;;23.04;58.45;100986.63;5091244;28;20036;-71
2022/09/10 06:17:11;;;;;;;37.03;25.27;;;;;;;23.01;58.29;100986.44;5090991;28;20057;-71
2022/09/10 06:19:38;;;;;;;36.22;22.92;;;;;;;23.02;58.63;100997.09;5091677;28;20121;-70
2022/09/10 06:22:04;;;;;;;39.25;23.52;;;;;;;23.11;58.55;100988.97;5090484;28;20055;-71
2022/09/10 06:24:29;;;;;;;33.72;22.15;;;;;;;23.07;58.04;100997.00;5090515;28;20079;-73
2022/09/10 06:26:56;;;;;;;45.22;24.30;;;;;;;23.12;58.59;101002.38;5091186;28;20065;-70
2022/09/10 06:29:21;;;;;;;32.83;22.20;;;;;;;23.10;58.40;101003.78;5090746;28;20093;-70
2022/09/10 06:31:47;;;;;;;37.33;24.02;;;;;;;23.17;58.65;100999.56;5072243;28;20434;-71
2022/09/10 06:34:12;;;;;;;32.45;21.05;;;;;;;23.30;58.17;100995.97;5072493;28;20151;-72
2022/09/10 06:36:38;;;;;;;31.67;20.98;;;;;;;23.34;58.28;101007.19;5090844;28;20040;-70
2022/09/10 06:39:05;;;;;;;30.70;22.67;;;;;;;23.45;58.18;101003.91;5090694;28;20075;-71
2022/09/10 06:41:32;;;;;;;34.47;20.63;;;;;;;23.37;58.23;101001.88;5091293;28;20043;-70
2022/09/10 06:43:57;;;;;;;28.20;19.90;;;;;;;23.38;57.96;101006.28;5091084;28;20066;-70
2022/09/10 06:46:23;;;;;;;27.25;20.00;;;;;;;23.22;58.25;101004.09;5073284;28;20044;-73
2022/09/10 06:48:48;;;;;;;27.95;19.63;;;;;;;23.27;58.20;101001.28;5090736;28;20036;-72
2022/09/10 06:51:15;;;;;;;26.20;19.67;;;;;;;23.18;58.85;101005.81;5090531;28;20044;-71
2022/09/10 06:53:41;;;;;;;28.27;18.77;;;;;;;23.50;57.98;101012.06;5090750;28;20118;-71
2022/09/10 06:56:10;;;;;;;28.80;18.60;;;;;;;23.46;58.54;101008.31;5090659;28;20035;-71
2022/09/10 06:58:35;;;;;;;23.63;18.23;;;;;;;23.66;57.82;101019.94;5091342;28;20024;-71
2022/09/10 07:01:18;;;;;;;22.75;18.08;;;;;;;23.56;58.23;101015.50;5090904;28;20039;-71
2022/09/10 07:03:44;;;;;;;27.77;17.17;;;;;;;23.59;57.74;101017.63;5091013;28;20028;-73
2022/09/10 07:06:15;;;;;;;23.58;17.73;;;;;;;23.54;57.31;101015.81;5091170;28;20040;-73
2022/09/10 07:08:41;;;;;;;21.08;16.10;;;;;;;23.68;57.25;101014.97;5090671;28;20069;-71
2022/09/10 07:11:11;;;;;;;23.00;16.38;;;;;;;23.55;57.72;101019.34;5090963;28;20118;-71
2022/09/10 07:13:37;;;;;;;21.10;15.63;;;;;;;23.59;57.45;101028.59;5091860;28;20480;-72
2022/09/10 07:16:03;;;;;;;23.98;17.48;;;;;;;23.67;57.55;101021.56;5091356;28;20036;-73
2022/09/10 07:18:29;;;;;;;21.30;15.98;;;;;;;23.74;57.14;101032.94;5090805;28;20034;-72
2022/09/10 07:21:06;;;;;;;21.90;17.58;;;;;;;23.93;57.07;101025.38;5091096;28;20040;-72
2022/09/10 07:23:31;;;;;;;20.90;16.15;;;;;;;23.93;57.26;101022.63;5090269;28;20036;-73
2022/09/10 07:26:03;;;;;;;25.33;18.15;;;;;;;23.88;57.41;101020.78;5091263;28;20047;-73
2022/09/10 07:28:29;;;;;;;22.98;16.55;;;;;;;23.92;57.42;101032.78;5080211;28;20048;-70
2022/09/10 07:30:54;;;;;;;21.92;16.80;;;;;;;23.92;57.53;101030.03;5070624;28;20129;-73
2022/09/10 07:33:21;;;;;;;25.23;17.42;;;;;;;24.04;57.44;101043.25;5092122;28;20025;-73
2022/09/10 07:35:46;;;;;;;23.50;16.30;;;;;;;24.08;57.64;101038.78;5094508;28;20043;-71
2022/09/10 07:38:12;;;;;;;25.35;17.45;;;;;;;23.97;57.29;101051.91;5094787;28;20024;-72
2022/09/10 07:40:39;;;;;;;19.85;17.42;;;;;;;24.17;57.15;101048.72;5094819;28;20036;-72
2022/09/10 07:43:05;;;;;;;22.27;16.80;;;;;;;24.47;56.54;101049.91;5094337;28;20263;-73
2022/09/10 07:45:31;;;;;;;25.45;18.77;;;;;;;24.40;56.24;101057.78;5094092;28;20062;-72
2022/09/10 07:47:56;;;;;;;26.08;16.65;;;;;;;24.45;56.08;101054.94;5094732;28;20059;-71
2022/09/10 07:50:22;;;;;;;22.75;15.95;;;;;;;24.59;56.36;101052.13;5093913;28;20419;-71
2022/09/10 07:52:48;;;;;;;18.30;14.57;;;;;;;24.61;55.82;101056.16;5090561;28;20028;-71
2022/09/10 07:55:13;;;;;;;21.58;15.73;;;;;;;24.59;55.96;101052.13;5083949;28;20493;-72
2022/09/10 07:57:39;;;;;;;16.83;13.70;;;;;;;24.64;54.91;101058.28;5078967;28;20040;-72
2022/09/10 08:00:10;;;;;;;17.60;14.98;;;;;;;24.66;55.50;101064.28;5074078;28;20040;-74
2022/09/10 08:02:36;;;;;;;18.08;13.85;;;;;;;24.54;55.13;101057.72;5074293;28;20400;-73
2022/09/10 08:05:03;;;;;;;17.50;11.60;;;;;;;24.95;54.37;101059.16;5060054;28;20042;-70
2022/09/10 08:07:30;;;;;;;19.90;12.52;;;;;;;24.85;54.23;101059.41;5066110;28;20120;-71
2022/09/10 08:09:56;;;;;;;16.23;12.95;;;;;;;24.89;54.44;101063.16;5085996;28;20423;-72
2022/09/10 08:12:21;;;;;;;19.17;12.77;;;;;;;24.77;54.49;101067.59;5085547;28;20058;-70
2022/09/10 08:14:47;;;;;;;17.30;11.68;;;;;;;24.73;54.66;101064.69;5085812;28;20036;-72
2022/09/10 08:17:12;;;;;;;17.90;12.40;;;;;;;25.03;54.75;101076.81;5082575;28;20040;-70
2022/09/10 08:19:38;;;;;;;17.42;12.60;;;;;;;25.05;54.32;101080.06;5082622;28;20479;-69
2022/09/10 08:22:04;;;;;;;17.10;12.25;;;;;;;25.03;54.46;101076.81;5082895;28;20089;-71
2022/09/10 08:24:30;;;;;;;16.83;12.30;;;;;;;25.12;54.56;101074.91;5066762;28;20036;-71
2022/09/10 08:26:55;;;;;;;17.77;11.68;;;;;;;25.02;54.30;101081.50;5083634;28;20043;-71
2022/09/10 08:29:22;;;;;;;20.50;11.23;;;;;;;25.10;54.45;101080.75;5084811;28;20093;-70
2022/09/10 08:31:47;;;;;;;13.70;11.18;;;;;;;25.16;53.68;101090.47;5085559;28;20396;-72
2022/09/10 08:34:12;;;;;;;12.82;10.10;;;;;;;25.22;53.26;101080.13;5081472;28;20028;-71
2022/09/10 08:36:38;;;;;;;11.63;9.93;;;;;;;25.50;53.14;101094.53;5077143;28;20106;-72
2022/09/10 08:39:04;;;;;;;13.70;10.52;;;;;;;25.30;53.52;101084.88;5065282;28;20032;-71
2022/09/10 08:41:38;;;;;;;12.68;9.15;;;;;;;25.05;53.53;101089.13;5080398;28;20423;-70
2022/09/10 08:44:09;;;;;;;16.67;9.55;;;;;;;25.37;52.94;101099.00;5074888;28;20020;-71
2022/09/10 08:46:41;;;;;;;15.00;9.52;;;;;;;25.40;52.59;101094.81;5085939;28;20063;-71
2022/09/10 08:49:15;;;;;;;11.57;10.05;;;;;;;25.61;52.58;101091.16;5082117;28;20028;-72
2022/09/10 08:51:53;;;;;;;15.05;9.98;;;;;;;25.60;52.51;101095.06;5081773;28;20108;-70
2022/09/10 08:54:29;;;;;;;12.82;9.45;;;;;;;25.69;52.39;101090.38;5081729;28;20032;-71
2022/09/10 08:56:59;;;;;;;14.50;9.52;;;;;;;25.84;52.47;101095.47;5081210;28;20036;-71
2022/09/10 08:59:32;;;;;;;13.52;8.77;;;;;;;25.95;51.28;101093.19;5082528;28;20055;-73
2022/09/10 09:02:10;;;;;;;9.38;8.27;;;;;;;25.93;51.64;101103.72;5082321;28;20380;-73
2022/09/10 09:04:48;;;;;;;8.10;6.50;;;;;;;26.07;50.18;101102.50;5078328;28;20121;-74
2022/09/10 09:07:18;;;;;;;8.77;5.20;;;;;;;26.14;50.87;101109.47;5089360;28;20416;-70
2022/09/10 09:09:47;;;;;;;9.15;5.00;;;;;;;26.34;50.31;101106.09;5080838;28;20067;-71
2022/09/10 09:12:24;;;;;;;8.07;4.38;;;;;;;26.54;49.43;101110.94;5071948;28;20123;-71
2022/09/10 09:15:16;;;;;;;8.23;4.93;;;;;;;26.49;49.02;101114.69;5072081;28;20037;-73
2022/09/10 09:18:26;;;;;;;7.75;4.40;;;;;;;26.22;50.07;101114.19;5084874;28;20028;-71
2022/09/10 09:21:05;;;;;;;9.50;4.85;;;;;;;25.81;49.79;101120.88;4985186;28;20325;-72
2022/09/10 09:23:48;;;;;;;8.13;4.95;;;;;;;26.04;50.36;101124.34;4986998;28;20042;-71
2022/09/10 09:26:14;;;;;;;8.90;5.82;;;;;;;26.08;49.42;101122.59;4982355;28;20405;-73
2022/09/10 09:28:46;;;;;;;11.20;4.65;;;;;;;26.28;49.72;101121.94;4981754;28;20030;-71
2022/09/10 09:31:22;;;;;;;6.72;4.63;;;;;;;26.61;50.09;101127.81;4980676;28;20104;-72
2022/09/10 09:33:52;;;;;;;6.78;4.00;;;;;;;26.97;49.23;101120.00;4984898;28;20556;-73
2022/09/10 09:36:26;;;;;;;9.65;4.53;;;;;;;26.34;48.26;101128.13;4970314;28;20072;-71
2022/09/10 09:38:51;;;;;;;6.20;3.63;;;;;;;26.16;48.94;101118.22;4987046;28;20069;-71
2022/09/10 09:41:38;;;;;;;5.20;3.85;;;;;;;26.23;49.36;101135.09;4985926;28;20061;-71
2022/09/10 09:44:15;;;;;;;8.15;4.20;;;;;;;26.19;49.06;101129.41;4986311;28;20039;-72
2022/09/10 09:46:41;;;;;;;8.57;3.97;;;;;;;26.22;48.22;101128.75;4987724;28;20038;-72
2022/09/10 09:49:15;;;;;;;5.07;3.33;;;;;;;25.94;49.34;101127.41;4988439;28;20065;-71
2022/09/10 09:51:41;;;;;;;4.30;3.28;;;;;;;25.56;49.97;101126.28;4988366;28;20043;-71
2022/09/10 09:54:14;;;;;;;6.10;3.20;;;;;;;25.95;49.91;101123.50;4987453;28;20482;-69
2022/09/10 09:56:48;;;;;;;7.00;3.30;;;;;;;26.23;49.12;101124.06;4998779;28;20037;-70
2022/09/10 09:59:23;;;;;;;5.85;2.97;;;;;;;26.31;48.62;101129.59;5063333;28;20036;-70
2022/09/10 10:01:50;;;;;;;5.30;2.90;;;;;;;26.27;49.48;101130.56;5066614;28;20198;-72
2022/09/10 10:04:23;;;;;;;6.60;3.45;;;;;;;26.21;48.71;101124.38;5058829;28;20115;-71
2022/09/10 10:06:59;;;;;;;4.97;3.08;;;;;;;26.57;48.21;101122.16;5062640;28;20143;-71
2022/09/10 10:09:31;;;;;;;8.60;4.50;;;;;;;26.62;48.19;101119.22;5061601;28;20052;-71
2022/09/10 10:11:56;;;;;;;8.02;3.83;;;;;;;26.86;48.02;101119.53;5064544;28;20024;-71
2022/09/10 10:14:41;;;;;;;11.00;4.65;;;;;;;27.23;47.04;101123.50;5061962;28;20179;-70
2022/09/10 10:17:29;;;;;;;8.63;4.40;;;;;;;27.22;46.94;101121.91;5061260;28;20040;-71
2022/09/10 10:20:07;;;;;;;7.88;4.53;;;;;;;27.17;47.19;101132.28;5059417;28;20079;-71
2022/09/10 10:22:34;;;;;;;8.63;5.00;;;;;;;26.27;48.29;101127.78;5057398;28;20016;-72
2022/09/10 10:25:02;;;;;;;8.57;4.47;;;;;;;26.40;48.50;101129.56;5076862;28;20048;-72
2022/09/10 10:27:32;;;;;;;7.60;3.90;;;;;;;26.31;47.49;101126.84;5082790;28;20093;-72
2022/09/10 10:30:04;;;;;;;8.00;4.18;;;;;;;27.07;46.38;101122.41;5081677;28;20024;-71
2022/09/10 10:32:40;;;;;;;9.45;5.03;;;;;;;27.54;46.41;101129.59;5088428;28;20464;-73
2022/09/10 10:35:33;;;;;;;10.00;4.97;;;;;;;27.42;45.98;101123.94;5050470;28;20177;-72
2022/09/10 10:38:14;;;;;;;7.70;4.28;;;;;;;27.71;45.23;101126.72;5084378;28;20032;-71
2022/09/10 10:40:55;;;;;;;9.73;5.00;;;;;;;27.85;45.31;101137.56;5082623;28;20137;-73
2022/09/10 10:43:43;;;;;;;9.40;4.63;;;;;;;28.04;45.37;101137.16;5081566;28;20052;-73
2022/09/10 10:46:19;;;;;;;12.07;4.43;;;;;;;28.50;44.15;101137.78;5063640;28;20063;-71
2022/09/10 10:48:58;;;;;;;6.15;4.25;;;;;;;28.50;44.25;101134.22;5082763;28;20135;-69
2022/09/10 10:51:50;;;;;;;9.93;5.18;;;;;;;28.49;44.88;101135.34;5077669;28;20036;-71
2022/09/10 10:54:24;;;;;;;9.88;3.85;;;;;;;28.77;43.41;101139.22;5082696;28;20040;-72
2022/09/10 10:57:26;;;;;;;8.27;4.05;;;;;;;29.11;42.47;101138.06;5085754;28;20527;-73
2022/09/10 10:59:55;;;;;;;8.60;2.88;;;;;;;28.34;44.46;101142.28;5088030;28;20036;-72
2022/09/10 11:02:39;;;;;;;6.35;2.97;;;;;;;28.38;42.87;101140.47;5088907;28;20481;-72
2022/09/10 11:05:40;;;;;;;4.45;2.60;;;;;;;27.52;43.95;101139.34;5086750;28;20582;-73
2022/09/10 11:08:15;;;;;;;4.47;2.28;;;;;;;27.90;42.87;101140.13;5089659;28;20060;-74
2022/09/10 11:10:53;;;;;;;7.20;2.20;;;;;;;28.23;42.45;101148.56;5083564;28;20075;-74
2022/09/10 11:13:21;;;;;;;6.82;3.03;;;;;;;28.25;42.74;101138.78;5085716;28;20047;-71
2022/09/10 11:16:00;;;;;;;8.32;3.38;;;;;;;27.41;43.81;101147.19;5083709;28;20032;-73
2022/09/10 11:18:38;;;;;;;5.07;2.67;;;;;;;27.30;44.27;101154.16;5062461;28;20056;-72
2022/09/10 11:21:21;;;;;;;7.20;3.30;;;;;;;27.58;44.37;101154.56;5081395;28;20036;-74
2022/09/10 11:23:56;;;;;;;6.80;3.40;;;;;;;27.82;44.17;101152.03;5083344;28;20059;-73